Time;durP1;ratioP1;P1;durP2;ratioP2;P2;SDS_P1;SDS_P2;PMS_P1;PMS_P2;Temp;Humidity;BMP_temperature;BMP_pressure;BME280_temperature;BME280_humidity;BME280_pressure;Samples;Min_cycle;Max_cycle;Signal;HPM_P1;HPM_P2
2020/12/06 00:00:54;;;;;;;;;;;2.00;99.90;;;;;;5114239;28;19931;-71
2020/12/06 00:03:21;;;;;;;;;;;2.10;99.90;;;;;;5112566;28;19947;-71
2020/12/06 00:05:47;;;;;;;;;;;2.20;99.90;;;;;;5098383;28;19924;-71
2020/12/06 00:08:13;;;;;;;;;;;2.20;99.90;;;;;;5110811;28;20040;-71
2020/12/06 00:10:39;;;;;;;;;;;2.30;99.90;;;;;;5104739;28;19928;-71
2020/12/06 00:13:05;;;;;;;;;;;2.30;99.90;;;;;;5093749;28;19931;-71
2020/12/06 00:15:30;;;;;;;;;;;2.30;99.90;;;;;;5093947;28;20292;-71
2020/12/06 00:17:56;;;;;;;;;;;2.30;99.90;;;;;;5095038;28;19924;-71
2020/12/06 00:20:23;;;;;;;;;;;2.30;99.90;;;;;;5093840;28;19931;-71
2020/12/06 00:22:50;;;;;;;;;;;2.40;99.90;;;;;;5093242;28;19928;-70
2020/12/06 00:25:16;;;;;;;;;;;2.40;99.90;;;;;;5104678;28;19970;-70
2020/12/06 00:27:42;;;;;;;;;;;2.40;99.90;;;;;;5114199;28;20296;-71
2020/12/06 00:30:08;;;;;;;;;;;2.50;99.90;;;;;;5110738;28;19924;-71
2020/12/06 00:32:34;;;;;;;;;;;2.40;99.90;;;;;;5093342;28;19924;-71
2020/12/06 00:35:00;;;;;;;;;;;2.40;99.90;;;;;;5098294;28;19978;-71
2020/12/06 00:37:27;;;;;;;;;;;2.40;99.90;;;;;;5093517;28;19924;-71
2020/12/06 00:39:53;;;;;;;;;;;2.50;99.90;;;;;;5099627;28;19927;-71
2020/12/06 00:42:19;;;;;;;;;;;2.40;99.90;;;;;;5113387;28;20492;-70
2020/12/06 00:44:45;;;;;;;;;;;2.50;99.90;;;;;;5113713;28;19923;-71
2020/12/06 00:47:11;;;;;;;;;;;2.50;99.90;;;;;;5093958;28;19931;-70
2020/12/06 00:49:37;;;;;;;;;;;2.60;99.90;;;;;;5093230;28;19946;-70
2020/12/06 00:52:03;;;;;;;;;;;2.70;99.90;;;;;;5092771;28;19924;-71
2020/12/06 00:54:30;;;;;;;;;;;2.70;99.90;;;;;;5093105;28;19938;-69
2020/12/06 00:56:56;;;;;;;;;;;2.80;99.90;;;;;;5093126;28;19928;-69
2020/12/06 00:59:22;;;;;;;;;;;2.90;99.90;;;;;;5093042;28;20323;-69
2020/12/06 01:01:48;;;;;;;;;;;2.90;99.90;;;;;;5092559;28;19924;-70
2020/12/06 01:04:14;;;;;;;;;;;2.90;99.90;;;;;;5092720;28;20285;-70
2020/12/06 01:06:40;;;;;;;;;;;2.90;99.90;;;;;;5093042;28;19924;-70
2020/12/06 01:09:06;;;;;;;;;;;2.90;99.90;;;;;;5093020;28;19931;-70
2020/12/06 01:11:33;;;;;;;;;;;2.90;99.90;;;;;;5092734;28;19924;-69
2020/12/06 01:13:59;;;;;;;;;;;3.00;99.90;;;;;;5098818;28;19931;-69
2020/12/06 01:16:25;;;;;;;;;;;3.00;99.90;;;;;;5113111;28;19930;-70
2020/12/06 01:18:51;;;;;;;;;;;3.00;99.90;;;;;;5113043;28;19928;-70
2020/12/06 01:21:17;;;;;;;;;;;3.10;99.90;;;;;;5112090;28;19928;-70
2020/12/06 01:23:43;;;;;;;;;;;3.10;99.90;;;;;;5112852;28;19924;-70
2020/12/06 01:26:09;;;;;;;;;;;3.20;99.90;;;;;;5112583;28;20407;-70
2020/12/06 01:28:36;;;;;;;;;;;3.20;99.90;;;;;;5113074;28;19924;-70
2020/12/06 01:31:02;;;;;;;;;;;3.20;99.90;;;;;;5112958;28;19965;-70
2020/12/06 01:33:28;;;;;;;;;;;3.20;99.90;;;;;;5108337;28;19924;-70
2020/12/06 01:35:54;;;;;;;;;;;3.20;99.90;;;;;;5092452;28;19971;-70
2020/12/06 01:38:20;;;;;;;;;;;3.20;99.90;;;;;;5093811;28;19924;-70
2020/12/06 01:40:46;;;;;;;;;;;3.10;99.90;;;;;;5089825;28;19925;-70
2020/12/06 01:43:12;;;;;;;;;;;3.20;99.90;;;;;;5085345;28;20008;-69
2020/12/06 01:45:39;;;;;;;;;;;3.10;99.90;;;;;;5092265;28;19924;-70
2020/12/06 01:48:07;;;;;;;;;;;3.10;99.90;;;;;;5092345;28;19993;-70
2020/12/06 01:50:33;;;;;;;;;;;3.00;99.90;;;;;;5108707;28;20286;-70
2020/12/06 01:52:59;;;;;;;;;;;3.10;99.90;;;;;;5112390;28;19977;-70
2020/12/06 01:55:26;;;;;;;;;;;3.10;99.90;;;;;;5112637;28;19924;-70
2020/12/06 01:57:52;;;;;;;;;;;3.10;99.90;;;;;;5114687;28;19992;-69
2020/12/06 02:00:18;;;;;;;;;;;3.00;99.90;;;;;;5116575;28;20380;-70
2020/12/06 02:02:45;;;;;;;;;;;3.10;99.90;;;;;;5115466;27;19931;-70
2020/12/06 02:05:11;;;;;;;;;;;3.10;99.90;;;;;;5096193;28;19924;-70
2020/12/06 02:07:37;;;;;;;;;;;3.00;99.90;;;;;;5096573;28;20010;-70
2020/12/06 02:10:04;;;;;;;;;;;3.10;99.90;;;;;;5097517;28;19978;-70
2020/12/06 02:12:30;;;;;;;;;;;3.10;99.90;;;;;;5116477;28;19977;-70
2020/12/06 02:14:56;;;;;;;;;;;3.10;99.90;;;;;;5116350;28;19924;-70
2020/12/06 02:17:22;;;;;;;;;;;3.10;99.90;;;;;;5098984;28;20389;-70
2020/12/06 02:19:48;;;;;;;;;;;3.10;99.90;;;;;;5112507;28;19931;-69
2020/12/06 02:22:15;;;;;;;;;;;3.10;99.90;;;;;;5107737;28;19928;-70
2020/12/06 02:24:41;;;;;;;;;;;3.00;99.90;;;;;;5096043;28;19924;-70
2020/12/06 02:27:07;;;;;;;;;;;3.10;99.90;;;;;;5096019;28;19970;-70
2020/12/06 02:29:33;;;;;;;;;;;3.10;99.90;;;;;;5095942;28;19924;-70
2020/12/06 02:31:59;;;;;;;;;;;3.00;99.90;;;;;;5095515;28;19934;-70
2020/12/06 02:34:25;;;;;;;;;;;3.00;99.90;;;;;;5101109;28;20387;-70
2020/12/06 02:36:51;;;;;;;;;;;3.00;99.90;;;;;;5096026;28;19924;-70
2020/12/06 02:39:18;;;;;;;;;;;3.00;99.90;;;;;;5105985;28;19924;-69
2020/12/06 02:41:45;;;;;;;;;;;3.10;99.90;;;;;;5115524;28;19969;-70
2020/12/06 02:44:11;;;;;;;;;;;3.20;99.90;;;;;;5115972;28;19923;-70
2020/12/06 02:46:37;;;;;;;;;;;3.30;99.90;;;;;;5112369;27;20372;-70
2020/12/06 02:49:04;;;;;;;;;;;3.30;99.90;;;;;;5095667;28;20377;-70
2020/12/06 02:51:30;;;;;;;;;;;3.30;99.90;;;;;;5105730;28;19932;-70
2020/12/06 02:53:56;;;;;;;;;;;3.30;99.90;;;;;;5115593;27;19923;-70
2020/12/06 02:56:23;;;;;;;;;;;3.30;99.90;;;;;;5115365;28;19932;-70
2020/12/06 02:58:49;;;;;;;;;;;3.40;99.90;;;;;;5114107;28;19927;-70
2020/12/06 03:01:15;;;;;;;;;;;3.40;99.90;;;;;;5115398;28;19924;-70
2020/12/06 03:03:41;;;;;;;;;;;3.40;99.90;;;;;;5115207;28;20431;-70
2020/12/06 03:06:07;;;;;;;;;;;3.40;99.90;;;;;;5115824;28;19923;-70
2020/12/06 03:08:33;;;;;;;;;;;3.40;99.90;;;;;;5113970;28;19931;-70
2020/12/06 03:10:59;;;;;;;;;;;3.40;99.90;;;;;;5115392;28;19927;-70
2020/12/06 03:13:26;;;;;;;;;;;3.40;99.90;;;;;;5114925;28;19977;-69
2020/12/06 03:15:52;;;;;;;;;;;3.40;99.90;;;;;;5115497;28;19923;-69
2020/12/06 03:18:18;;;;;;;;;;;3.40;99.90;;;;;;5114985;28;20372;-69
2020/12/06 03:20:44;;;;;;;;;;;3.40;99.90;;;;;;5114608;28;19924;-69
2020/12/06 03:23:10;;;;;;;;;;;3.40;99.90;;;;;;5114740;28;19954;-70
2020/12/06 03:25:36;;;;;;;;;;;3.40;99.90;;;;;;5114652;28;19937;-70
2020/12/06 03:28:02;;;;;;;;;;;3.40;99.90;;;;;;5114823;28;19924;-70
2020/12/06 03:30:29;;;;;;;;;;;3.40;99.90;;;;;;5115112;28;19930;-70
2020/12/06 03:32:55;;;;;;;;;;;3.40;99.90;;;;;;5112954;28;19924;-70
2020/12/06 03:35:21;;;;;;;;;;;3.40;99.90;;;;;;5100153;28;19931;-70
2020/12/06 03:37:47;;;;;;;;;;;3.40;99.90;;;;;;5095450;28;20304;-70
2020/12/06 03:40:13;;;;;;;;;;;3.40;99.90;;;;;;5096128;28;19924;-70
2020/12/06 03:42:39;;;;;;;;;;;3.40;99.90;;;;;;5105427;28;20292;-70
2020/12/06 03:45:04;;;;;;;;;;;3.40;99.90;;;;;;5094287;28;19924;-70
2020/12/06 03:47:31;;;;;;;;;;;3.50;99.90;;;;;;5098840;28;19947;-70
2020/12/06 03:49:57;;;;;;;;;;;3.50;99.90;;;;;;5114168;28;19924;-70
2020/12/06 03:52:23;;;;;;;;;;;3.60;99.90;;;;;;5114322;28;19931;-70
2020/12/06 03:54:50;;;;;;;;;;;3.60;99.90;;;;;;5114013;28;19984;-70
2020/12/06 03:57:16;;;;;;;;;;;3.70;99.90;;;;;;5114536;28;19924;-70
2020/12/06 03:59:42;;;;;;;;;;;3.80;99.90;;;;;;5114599;28;20027;-70
2020/12/06 04:02:08;;;;;;;;;;;3.80;99.90;;;;;;5114699;28;19931;-70
2020/12/06 04:04:34;;;;;;;;;;;3.90;99.90;;;;;;5111321;28;19935;-70
2020/12/06 04:07:00;;;;;;;;;;;3.90;99.90;;;;;;5110971;28;20451;-70
2020/12/06 04:09:26;;;;;;;;;;;3.90;99.90;;;;;;5112555;28;19924;-70
2020/12/06 04:11:52;;;;;;;;;;;3.90;99.90;;;;;;5114223;28;20008;-70
2020/12/06 04:14:18;;;;;;;;;;;3.90;99.90;;;;;;5114215;28;19931;-70
2020/12/06 04:16:44;;;;;;;;;;;3.90;99.90;;;;;;5114220;28;19930;-70
2020/12/06 04:19:10;;;;;;;;;;;3.90;99.90;;;;;;5104770;28;20308;-70
2020/12/06 04:21:37;;;;;;;;;;;4.00;99.90;;;;;;5093449;28;19924;-70
2020/12/06 04:24:03;;;;;;;;;;;4.00;99.90;;;;;;5073178;28;20344;-70
2020/12/06 04:26:29;;;;;;;;;;;4.00;99.90;;;;;;5074129;28;19929;-70
2020/12/06 04:28:56;;;;;;;;;;;4.00;99.90;;;;;;5093513;28;19924;-70
2020/12/06 04:31:22;;;;;;;;;;;4.00;99.90;;;;;;5093350;28;20014;-70
2020/12/06 04:33:48;;;;;;;;;;;4.00;99.90;;;;;;5094523;28;19931;-70
2020/12/06 04:36:14;;;;;;;;;;;4.10;99.90;;;;;;5103274;28;19924;-70
2020/12/06 04:38:41;;;;;;;;;;;4.10;99.90;;;;;;5094416;28;20303;-71
2020/12/06 04:41:07;;;;;;;;;;;4.10;99.90;;;;;;5093318;28;20369;-70
2020/12/06 04:43:34;;;;;;;;;;;4.20;99.90;;;;;;5092915;28;19969;-70
2020/12/06 04:46:00;;;;;;;;;;;4.20;99.90;;;;;;5093354;28;19928;-70
2020/12/06 04:48:27;;;;;;;;;;;4.20;99.90;;;;;;5093119;28;20296;-70
2020/12/06 04:50:54;;;;;;;;;;;4.20;99.90;;;;;;5093217;28;20342;-70
2020/12/06 04:53:22;;;;;;;;;;;4.20;99.90;;;;;;5093005;28;19940;-70
2020/12/06 04:55:50;;;;;;;;;;;4.30;99.90;;;;;;5093234;28;19924;-70
2020/12/06 04:58:20;;;;;;;;;;;4.30;99.90;;;;;;5091281;28;19924;-71
2020/12/06 05:00:46;;;;;;;;;;;4.30;99.90;;;;;;5072702;28;19933;-70
2020/12/06 05:03:12;;;;;;;;;;;4.40;99.90;;;;;;5072568;28;19947;-71
2020/12/06 05:05:39;;;;;;;;;;;4.40;99.90;;;;;;5092116;28;19927;-71
2020/12/06 05:08:06;;;;;;;;;;;4.40;99.90;;;;;;5113395;28;19975;-70
2020/12/06 05:10:39;;;;;;;;;;;4.40;99.90;;;;;;5109785;28;19924;-70
2020/12/06 05:13:07;;;;;;;;;;;4.30;99.90;;;;;;5092765;28;19931;-71
2020/12/06 05:15:33;;;;;;;;;;;4.30;99.90;;;;;;5092775;28;19924;-71
2020/12/06 05:17:59;;;;;;;;;;;4.30;99.90;;;;;;5092876;28;19985;-70
2020/12/06 05:20:26;;;;;;;;;;;4.30;99.90;;;;;;5092547;28;19924;-71
2020/12/06 05:22:53;;;;;;;;;;;4.30;99.90;;;;;;5092562;28;19977;-70
2020/12/06 05:25:19;;;;;;;;;;;4.30;99.90;;;;;;5092794;28;19971;-71
2020/12/06 05:27:45;;;;;;;;;;;4.30;99.90;;;;;;5092717;28;19977;-70
2020/12/06 05:30:12;;;;;;;;;;;4.30;99.90;;;;;;5092532;28;19931;-71
2020/12/06 05:32:38;;;;;;;;;;;4.20;99.90;;;;;;5091810;28;20320;-71
2020/12/06 05:35:04;;;;;;;;;;;4.20;99.90;;;;;;5111142;28;19953;-71
2020/12/06 05:37:30;;;;;;;;;;;4.20;99.90;;;;;;5092225;28;19928;-71
2020/12/06 05:40:04;;;;;;;;;;;4.20;99.90;;;;;;5111384;28;19924;-71
2020/12/06 05:42:30;;;;;;;;;;;4.20;99.90;;;;;;5112315;28;19977;-71
2020/12/06 05:44:57;;;;;;;;;;;4.20;99.90;;;;;;5112639;28;19924;-70
2020/12/06 05:47:24;;;;;;;;;;;4.20;99.90;;;;;;5112344;28;19977;-71
2020/12/06 05:49:50;;;;;;;;;;;4.20;99.90;;;;;;5112775;28;20079;-71
2020/12/06 05:52:16;;;;;;;;;;;4.30;99.90;;;;;;5111700;28;19932;-71
2020/12/06 05:54:42;;;;;;;;;;;4.30;99.90;;;;;;5105222;28;19978;-70
2020/12/06 05:57:10;;;;;;;;;;;4.40;99.90;;;;;;5095782;28;19924;-71
2020/12/06 05:59:36;;;;;;;;;;;4.40;99.90;;;;;;5112642;28;19924;-71
2020/12/06 06:02:03;;;;;;;;;;;4.50;99.90;;;;;;5111678;28;19928;-70
2020/12/06 06:04:32;;;;;;;;;;;4.50;99.90;;;;;;5112551;28;19924;-70
2020/12/06 06:07:01;;;;;;;;;;;4.60;99.90;;;;;;5103019;28;20384;-71
2020/12/06 06:09:28;;;;;;;;;;;4.60;99.90;;;;;;5112378;28;19924;-70
2020/12/06 06:11:56;;;;;;;;;;;4.70;99.90;;;;;;5112164;28;19976;-70
2020/12/06 06:14:22;;;;;;;;;;;4.80;99.90;;;;;;5112519;28;20016;-70
2020/12/06 06:16:48;;;;;;;;;;;4.80;99.90;;;;;;5112633;28;19989;-70
2020/12/06 06:19:15;;;;;;;;;;;4.90;99.90;;;;;;5112008;28;19930;-71
2020/12/06 06:21:42;;;;;;;;;;;4.90;99.90;;;;;;5112019;28;20380;-70
2020/12/06 06:24:09;;;;;;;;;;;5.00;99.90;;;;;;5112081;28;20440;-71
2020/12/06 06:26:37;;;;;;;;;;;5.20;99.90;;;;;;5112437;28;19928;-71
2020/12/06 06:29:09;;;;;;;;;;;5.30;99.90;;;;;;5094379;28;19924;-71
2020/12/06 06:31:35;;;;;;;;;;;5.30;99.90;;;;;;5091950;28;19924;-70
2020/12/06 06:34:01;;;;;;;;;;;5.40;99.90;;;;;;5093212;28;19993;-70
2020/12/06 06:36:28;;;;;;;;;;;5.50;99.90;;;;;;5110261;28;20384;-70
2020/12/06 06:38:55;;;;;;;;;;;5.60;99.90;;;;;;5093313;28;19924;-71
2020/12/06 06:41:24;;;;;;;;;;;5.80;99.90;;;;;;5091606;28;20348;-70
2020/12/06 06:43:50;;;;;;;;;;;5.80;99.90;;;;;;5092164;28;20446;-71
2020/12/06 06:46:17;;;;;;;;;;;6.00;99.90;;;;;;5095480;28;20376;-71
2020/12/06 06:48:45;;;;;;;;;;;6.10;99.90;;;;;;5095610;28;19928;-70
2020/12/06 06:51:17;;;;;;;;;;;6.10;99.90;;;;;;5095377;28;19928;-71
2020/12/06 06:53:43;;;;;;;;;;;6.20;99.90;;;;;;5095378;28;19977;-71
2020/12/06 06:56:10;;;;;;;;;;;6.30;99.90;;;;;;5095295;28;19923;-71
2020/12/06 06:58:37;;;;;;;;;;;6.30;99.90;;;;;;5095305;28;20510;-70
2020/12/06 07:01:19;;;;;;;;;;;6.30;99.90;;;;;;5095396;28;20040;-71
2020/12/06 07:03:45;;;;;;;;;;;6.30;99.90;;;;;;5105007;28;19923;-71
2020/12/06 07:06:11;;;;;;;;;;;6.40;99.90;;;;;;5115391;28;19972;-71
2020/12/06 07:08:38;;;;;;;;;;;6.40;99.90;;;;;;5115616;28;20003;-71
2020/12/06 07:11:05;;;;;;;;;;;6.50;99.90;;;;;;5115416;28;20380;-71
2020/12/06 07:13:32;;;;;;;;;;;6.60;99.90;;;;;;5115085;28;19924;-71
2020/12/06 07:15:59;;;;;;;;;;;6.60;99.90;;;;;;5115324;28;19967;-70
2020/12/06 07:18:24;;;;;;;;;;;6.60;99.90;;;;;;5115139;28;19977;-71
2020/12/06 07:20:50;;;;;;;;;;;6.70;99.90;;;;;;5115133;28;19928;-70
2020/12/06 07:23:16;;;;;;;;;;;6.70;99.90;;;;;;5114971;28;20677;-70
2020/12/06 07:25:42;;;;;;;;;;;6.80;99.90;;;;;;5115410;28;19931;-71
2020/12/06 07:28:09;;;;;;;;;;;6.90;99.90;;;;;;5114694;28;20265;-71
2020/12/06 07:30:36;;;;;;;;;;;6.90;99.90;;;;;;5115513;28;19927;-70
2020/12/06 07:33:02;;;;;;;;;;;7.00;99.90;;;;;;5096272;28;19924;-71
2020/12/06 07:35:28;;;;;;;;;;;7.00;99.90;;;;;;5094646;28;19931;-70
2020/12/06 07:37:54;;;;;;;;;;;7.10;99.90;;;;;;5095660;28;19932;-70
2020/12/06 07:40:20;;;;;;;;;;;7.20;99.90;;;;;;5094696;28;19928;-71
2020/12/06 07:42:46;;;;;;;;;;;7.30;99.90;;;;;;5094347;28;19932;-70
2020/12/06 07:45:12;;;;;;;;;;;7.30;99.90;;;;;;5094490;28;19932;-70
2020/12/06 07:47:39;;;;;;;;;;;7.40;99.90;;;;;;5094634;28;19932;-71
2020/12/06 07:50:06;;;;;;;;;;;7.40;99.90;;;;;;5094311;28;19954;-71
2020/12/06 07:52:33;;;;;;;;;;;7.50;99.90;;;;;;5094213;28;19954;-71
2020/12/06 07:54:59;;;;;;;;;;;7.50;99.90;;;;;;5106155;28;19951;-71
2020/12/06 07:57:30;;;;;;;;;;;7.50;99.90;;;;;;5114895;28;20330;-71
2020/12/06 07:59:58;;;;;;;;;;;7.60;99.90;;;;;;5114606;28;19930;-71
2020/12/06 08:02:27;;;;;;;;;;;7.60;99.90;;;;;;5113993;28;19924;-72
2020/12/06 08:04:54;;;;;;;;;;;7.60;99.90;;;;;;5113548;27;20409;-71
2020/12/06 08:07:22;;;;;;;;;;;7.70;99.90;;;;;;5102614;28;19924;-71
2020/12/06 08:09:48;;;;;;;;;;;7.70;99.90;;;;;;5114585;28;19979;-71
2020/12/06 08:12:16;;;;;;;;;;;7.70;99.90;;;;;;5097528;28;19981;-70
2020/12/06 08:14:42;;;;;;;;;;;7.80;99.90;;;;;;5097890;28;19923;-70
2020/12/06 08:17:08;;;;;;;;;;;7.80;99.90;;;;;;5114204;28;19924;-70
2020/12/06 08:19:34;;;;;;;;;;;7.80;99.90;;;;;;5079102;28;19932;-71
2020/12/06 08:22:02;;;;;;;;;;;7.80;99.90;;;;;;5073463;28;19928;-71
2020/12/06 08:24:30;;;;;;;;;;;7.90;99.90;;;;;;5073511;28;19924;-71
2020/12/06 08:26:57;;;;;;;;;;;7.90;99.90;;;;;;5073619;28;19970;-70
2020/12/06 08:29:42;;;;;;;;;;;7.90;99.90;;;;;;5093776;28;19924;-71
2020/12/06 08:32:09;;;;;;;;;;;8.00;99.90;;;;;;5111128;28;19923;-71
2020/12/06 08:34:35;;;;;;;;;;;8.00;99.90;;;;;;5113797;28;19924;-71
2020/12/06 08:37:18;;;;;;;;;;;8.00;99.90;;;;;;5101127;28;19981;-70
2020/12/06 08:39:44;;;;;;;;;;;8.10;99.90;;;;;;5079646;28;19928;-70
2020/12/06 08:42:17;;;;;;;;;;;8.30;99.90;;;;;;5092865;28;19924;-70
2020/12/06 08:44:50;;;;;;;;;;;8.20;99.90;;;;;;5110994;28;19923;-71
2020/12/06 08:47:16;;;;;;;;;;;8.30;99.90;;;;;;5103548;28;19934;-72
2020/12/06 08:49:42;;;;;;;;;;;8.30;99.90;;;;;;5094345;28;19924;-68
2020/12/06 08:52:18;;;;;;;;;;;8.40;99.90;;;;;;5110117;28;20349;-69
2020/12/06 08:54:47;;;;;;;;;;;8.50;99.90;;;;;;5112819;28;19976;-70
2020/12/06 08:57:14;;;;;;;;;;;8.60;99.90;;;;;;5112705;28;21213;-70
2020/12/06 08:59:41;;;;;;;;;;;8.80;99.90;;;;;;5113458;28;19934;-70
2020/12/06 09:02:07;;;;;;;;;;;8.90;99.90;;;;;;5112701;28;19977;-70
2020/12/06 09:04:33;;;;;;;;;;;8.90;99.90;;;;;;5113404;28;19923;-69
2020/12/06 09:07:00;;;;;;;;;;;9.00;99.90;;;;;;5102681;28;19924;-69
2020/12/06 09:09:26;;;;;;;;;;;9.00;99.90;;;;;;5092722;28;19924;-70
2020/12/06 09:11:53;;;;;;;;;;;9.20;99.90;;;;;;5092530;28;19924;-70
2020/12/06 09:14:19;;;;;;;;;;;9.30;99.90;;;;;;5092645;28;19928;-69
2020/12/06 09:16:45;;;;;;;;;;;9.40;99.90;;;;;;5092691;28;19924;-71
2020/12/06 09:19:11;;;;;;;;;;;9.40;99.90;;;;;;5092699;28;19939;-68
2020/12/06 09:21:37;;;;;;;;;;;9.40;99.90;;;;;;5091794;28;19924;-69
2020/12/06 09:24:03;;;;;;;;;;;9.40;99.90;;;;;;5103259;28;19924;-71
2020/12/06 09:26:29;;;;;;;;;;;9.40;99.90;;;;;;5112758;28;19924;-68
2020/12/06 09:28:56;;;;;;;;;;;9.50;99.90;;;;;;5112579;28;19924;-69
2020/12/06 09:31:22;;;;;;;;;;;9.50;99.90;;;;;;5112419;28;20380;-69
2020/12/06 09:33:48;;;;;;;;;;;9.50;99.90;;;;;;5112375;28;19969;-70
2020/12/06 09:36:15;;;;;;;;;;;9.60;99.90;;;;;;5111200;28;19924;-72
2020/12/06 09:38:40;;;;;;;;;;;9.60;99.90;;;;;;5112773;28;19928;-68
2020/12/06 09:41:07;;;;;;;;;;;9.70;99.90;;;;;;5111242;28;19931;-69
2020/12/06 09:43:33;;;;;;;;;;;9.80;99.90;;;;;;5112633;28;20018;-69
2020/12/06 09:46:00;;;;;;;;;;;9.90;99.90;;;;;;5110903;28;19954;-70
2020/12/06 09:48:26;;;;;;;;;;;9.90;99.90;;;;;;5111978;28;19930;-69
2020/12/06 09:50:53;;;;;;;;;;;10.00;99.90;;;;;;5111728;28;19931;-70
2020/12/06 09:53:19;;;;;;;;;;;10.00;99.90;;;;;;5093731;28;19967;-68
2020/12/06 09:55:45;;;;;;;;;;;9.90;99.90;;;;;;5096121;28;19943;-71
2020/12/06 09:58:11;;;;;;;;;;;10.00;99.90;;;;;;5112786;28;19984;-71
2020/12/06 10:00:37;;;;;;;;;;;10.20;99.90;;;;;;5112866;28;19928;-71
2020/12/06 10:03:04;;;;;;;;;;;10.50;99.90;;;;;;5112240;28;20379;-70
2020/12/06 10:05:30;;;;;;;;;;;10.70;99.90;;;;;;5112407;28;19973;-71
2020/12/06 10:07:56;;;;;;;;;;;11.00;99.90;;;;;;5112548;28;20311;-71
2020/12/06 10:10:22;;;;;;;;;;;11.30;99.90;;;;;;5112405;28;19923;-71
2020/12/06 10:12:48;;;;;;;;;;;11.70;99.90;;;;;;5112231;28;19924;-71
2020/12/06 10:15:14;;;;;;;;;;;11.80;99.90;;;;;;5112397;28;19924;-71
2020/12/06 10:17:40;;;;;;;;;;;11.90;99.90;;;;;;5112577;28;19934;-71
2020/12/06 10:20:07;;;;;;;;;;;11.90;99.90;;;;;;5116162;28;20030;-71
2020/12/06 10:22:34;;;;;;;;;;;12.00;99.90;;;;;;5115917;28;19977;-71
2020/12/06 10:25:00;;;;;;;;;;;12.20;99.90;;;;;;5116444;28;19969;-70
2020/12/06 10:27:26;;;;;;;;;;;12.00;99.90;;;;;;5116265;28;19924;-71
2020/12/06 10:29:52;;;;;;;;;;;12.10;99.90;;;;;;5116322;28;19976;-71
2020/12/06 10:32:19;;;;;;;;;;;12.60;99.90;;;;;;5116090;28;19943;-71
2020/12/06 10:34:45;;;;;;;;;;;12.90;99.90;;;;;;5116024;28;20384;-70
2020/12/06 10:37:11;;;;;;;;;;;13.00;99.90;;;;;;5116340;28;19923;-70
2020/12/06 10:39:37;;;;;;;;;;;13.30;99.90;;;;;;5116253;28;19924;-70
2020/12/06 10:42:03;;;;;;;;;;;13.60;99.90;;;;;;5115742;28;19970;-70
2020/12/06 10:44:29;;;;;;;;;;;13.70;99.90;;;;;;5115905;28;20047;-70
2020/12/06 10:46:55;;;;;;;;;;;14.00;99.90;;;;;;5115926;28;19976;-70
2020/12/06 10:49:21;;;;;;;;;;;14.00;99.90;;;;;;5115771;28;19948;-70
2020/12/06 10:51:48;;;;;;;;;;;13.60;99.90;;;;;;5115719;28;19931;-70
2020/12/06 10:54:15;;;;;;;;;;;13.60;99.90;;;;;;5115936;28;20022;-70
2020/12/06 10:56:41;;;;;;;;;;;13.40;99.90;;;;;;5115875;28;19927;-70
2020/12/06 10:59:07;;;;;;;;;;;13.30;99.90;;;;;;5115717;28;19923;-70
2020/12/06 11:01:34;;;;;;;;;;;13.40;99.90;;;;;;5115278;28;19924;-70
2020/12/06 11:04:01;;;;;;;;;;;13.20;99.90;;;;;;5115554;28;20000;-70
2020/12/06 11:06:27;;;;;;;;;;;13.10;99.90;;;;;;5115780;28;19993;-71
2020/12/06 11:08:53;;;;;;;;;;;13.30;99.90;;;;;;5115779;28;20392;-71
2020/12/06 11:11:21;;;;;;;;;;;13.30;99.90;;;;;;5115174;28;19923;-70
2020/12/06 11:13:47;;;;;;;;;;;13.30;99.90;;;;;;5115301;28;19977;-71
2020/12/06 11:16:14;;;;;;;;;;;13.20;99.90;;;;;;5115315;28;19993;-71
2020/12/06 11:18:40;;;;;;;;;;;13.40;99.90;;;;;;5115206;28;20434;-70
2020/12/06 11:21:06;;;;;;;;;;;13.50;99.90;;;;;;5115363;28;19924;-70
2020/12/06 11:23:32;;;;;;;;;;;13.50;99.90;;;;;;5115128;27;19930;-70
2020/12/06 11:25:58;;;;;;;;;;;13.50;99.90;;;;;;5115242;28;19941;-70
2020/12/06 11:28:25;;;;;;;;;;;13.30;99.90;;;;;;5115008;28;19928;-70
2020/12/06 11:30:51;;;;;;;;;;;13.20;99.90;;;;;;5114324;28;19927;-70
2020/12/06 11:33:17;;;;;;;;;;;13.10;99.90;;;;;;5114940;28;20288;-70
2020/12/06 11:35:43;;;;;;;;;;;13.10;99.90;;;;;;5115205;28;19927;-70
2020/12/06 11:38:09;;;;;;;;;;;12.80;99.90;;;;;;5115030;28;19924;-71
2020/12/06 11:40:35;;;;;;;;;;;12.80;99.90;;;;;;5114965;28;19923;-70
2020/12/06 11:43:01;;;;;;;;;;;12.60;99.90;;;;;;5114564;28;19984;-70
2020/12/06 11:45:28;;;;;;;;;;;12.60;99.90;;;;;;5114566;28;19923;-71
2020/12/06 11:47:54;;;;;;;;;;;12.50;99.90;;;;;;5114613;28;19923;-70
2020/12/06 11:50:20;;;;;;;;;;;12.60;99.90;;;;;;5114858;28;20009;-70
2020/12/06 11:52:46;;;;;;;;;;;12.70;99.90;;;;;;5114594;28;19923;-70
2020/12/06 11:55:12;;;;;;;;;;;12.80;99.90;;;;;;5114719;28;19928;-70
2020/12/06 11:57:39;;;;;;;;;;;12.80;99.90;;;;;;5114495;28;19950;-70
2020/12/06 12:00:06;;;;;;;;;;;12.80;99.90;;;;;;5114541;28;19924;-70
2020/12/06 12:02:33;;;;;;;;;;;12.70;99.90;;;;;;5114111;28;19992;-71
2020/12/06 12:04:58;;;;;;;;;;;12.70;99.90;;;;;;5114552;28;19996;-71
2020/12/06 12:07:24;;;;;;;;;;;12.70;99.90;;;;;;5114546;28;20532;-70
2020/12/06 12:09:50;;;;;;;;;;;12.70;99.90;;;;;;5114400;28;19947;-70
2020/12/06 12:12:17;;;;;;;;;;;12.80;99.90;;;;;;5114163;28;19949;-71
2020/12/06 12:14:43;;;;;;;;;;;12.80;99.90;;;;;;5114476;28;19923;-71
2020/12/06 12:17:09;;;;;;;;;;;13.10;99.90;;;;;;5114269;28;20437;-71
2020/12/06 12:19:36;;;;;;;;;;;13.50;99.90;;;;;;5114195;28;19969;-71
2020/12/06 12:22:02;;;;;;;;;;;13.70;99.90;;;;;;5113814;28;19923;-69
2020/12/06 12:24:28;;;;;;;;;;;13.50;99.90;;;;;;5114024;28;19923;-70
2020/12/06 12:26:56;;;;;;;;;;;13.50;99.90;;;;;;5114004;28;20277;-70
2020/12/06 12:29:22;;;;;;;;;;;13.60;99.90;;;;;;5113922;28;19924;-71
2020/12/06 12:31:48;;;;;;;;;;;13.30;99.90;;;;;;5113766;28;19924;-70
2020/12/06 12:34:16;;;;;;;;;;;13.10;99.90;;;;;;5114145;28;19928;-70
2020/12/06 12:36:42;;;;;;;;;;;12.90;99.90;;;;;;5113896;28;19930;-70
2020/12/06 12:39:08;;;;;;;;;;;13.00;99.90;;;;;;5113911;28;20265;-70
2020/12/06 12:41:34;;;;;;;;;;;13.40;99.90;;;;;;5112487;28;20372;-70
2020/12/06 12:44:01;;;;;;;;;;;13.80;99.90;;;;;;5113498;28;19955;-70
2020/12/06 12:46:27;;;;;;;;;;;14.30;99.90;;;;;;5113524;28;19924;-70
2020/12/06 12:48:53;;;;;;;;;;;14.60;99.90;;;;;;5113865;28;19927;-71
2020/12/06 12:51:19;;;;;;;;;;;14.60;99.40;;;;;;5113360;28;19930;-70
2020/12/06 12:53:45;;;;;;;;;;;14.40;99.50;;;;;;5113463;28;20380;-70
2020/12/06 12:56:11;;;;;;;;;;;14.10;99.90;;;;;;5113516;28;19924;-71
2020/12/06 12:58:37;;;;;;;;;;;14.10;99.90;;;;;;5113362;28;20399;-71
2020/12/06 13:01:03;;;;;;;;;;;14.10;99.90;;;;;;5113535;28;19924;-71
2020/12/06 13:03:29;;;;;;;;;;;14.10;99.90;;;;;;5113139;28;20265;-70
2020/12/06 13:05:55;;;;;;;;;;;13.90;99.90;;;;;;5113361;28;19930;-70
2020/12/06 13:08:21;;;;;;;;;;;13.70;99.90;;;;;;5113465;28;20392;-70
2020/12/06 13:10:48;;;;;;;;;;;13.30;99.90;;;;;;5113107;28;19996;-71
2020/12/06 13:13:14;;;;;;;;;;;13.20;99.90;;;;;;5113016;28;19924;-72
2020/12/06 13:15:40;;;;;;;;;;;13.20;99.90;;;;;;5113248;28;19924;-71
2020/12/06 13:18:06;;;;;;;;;;;13.10;99.90;;;;;;5113205;28;20305;-71
2020/12/06 13:20:32;;;;;;;;;;;12.90;99.90;;;;;;5113050;28;19935;-71
2020/12/06 13:22:58;;;;;;;;;;;13.00;99.90;;;;;;5112688;28;19924;-71
2020/12/06 13:25:24;;;;;;;;;;;13.20;99.90;;;;;;5112987;28;19931;-71
2020/12/06 13:27:51;;;;;;;;;;;13.40;99.90;;;;;;5113024;28;20000;-71
2020/12/06 13:30:17;;;;;;;;;;;13.40;99.90;;;;;;5113003;28;19977;-71
2020/12/06 13:32:43;;;;;;;;;;;13.30;99.90;;;;;;5112752;28;19947;-71
2020/12/06 13:35:09;;;;;;;;;;;13.20;99.90;;;;;;5113062;28;20297;-71
2020/12/06 13:37:35;;;;;;;;;;;13.00;99.90;;;;;;5112878;28;19931;-72
2020/12/06 13:40:01;;;;;;;;;;;12.80;99.90;;;;;;5112632;28;20320;-72
2020/12/06 13:42:27;;;;;;;;;;;12.60;99.90;;;;;;5112354;28;19935;-72
2020/12/06 13:44:54;;;;;;;;;;;12.40;99.90;;;;;;5112580;28;19931;-71
2020/12/06 13:47:20;;;;;;;;;;;12.20;99.90;;;;;;5113025;28;19961;-70
2020/12/06 13:49:46;;;;;;;;;;;11.90;99.90;;;;;;5113008;28;19931;-71
2020/12/06 13:52:12;;;;;;;;;;;11.80;99.90;;;;;;5112639;28;19931;-71
2020/12/06 13:54:38;;;;;;;;;;;11.70;99.90;;;;;;5119035;28;19930;-71
2020/12/06 13:57:04;;;;;;;;;;;11.40;99.90;;;;;;5119421;27;20010;-71
2020/12/06 13:59:30;;;;;;;;;;;11.30;99.90;;;;;;5119719;27;19977;-72
2020/12/06 14:01:57;;;;;;;;;;;11.20;99.90;;;;;;5119326;27;19924;-71
2020/12/06 14:04:23;;;;;;;;;;;11.20;99.90;;;;;;5119408;28;19924;-72
2020/12/06 14:06:50;;;;;;;;;;;11.00;99.90;;;;;;5119387;28;19928;-71
2020/12/06 14:09:16;;;;;;;;;;;11.00;99.90;;;;;;5119325;28;20342;-71
2020/12/06 14:11:42;;;;;;;;;;;10.90;99.90;;;;;;5118952;28;20299;-71
2020/12/06 14:14:08;;;;;;;;;;;10.90;99.90;;;;;;5119345;28;19923;-71
2020/12/06 14:16:34;;;;;;;;;;;10.90;99.90;;;;;;5116957;28;19930;-70
2020/12/06 14:19:01;;;;;;;;;;;10.80;99.90;;;;;;5098050;28;19924;-70
2020/12/06 14:21:27;;;;;;;;;;;10.70;99.90;;;;;;5098402;28;19931;-70